Terminal Aerodrome Forecast
Issued by NWS

Home | Current Version | Previous Version | Text Only | Print | Product List | Glossary On
Versions: 1 2 3 4 5 6 7 8 9 10 11 12 13 14 15 16
398
FTUS43 KICT 242325
TAFSLN
TAF
KSLN 242325Z 2500/2524 05012KT P6SM SCT250
     FM250700 05009KT P6SM VCTS SCT080CB BKN200
     FM251300 06009KT P6SM BKN150
     FM252100 12009KT P6SM SCT250=

USA.gov is the U.S. government's official web portal to all federal, state and local government web resources and services.